createdAt,value
2022-09-12T00:02:09.344Z,14.53
2022-09-12T00:05:12.123Z,14.68
2022-09-12T00:08:15.244Z,14.63
2022-09-12T00:11:18.251Z,14.56
2022-09-12T00:14:20.864Z,14.55
2022-09-12T00:17:23.603Z,14.47
2022-09-12T00:20:26.169Z,14.46
2022-09-12T00:23:28.965Z,14.47
2022-09-12T00:26:31.741Z,14.49
2022-09-12T00:29:34.706Z,14.47
2022-09-12T00:32:37.343Z,14.47
2022-09-12T00:35:48.923Z,14.50
2022-09-12T00:38:51.628Z,14.43
2022-09-12T00:41:54.366Z,14.32
2022-09-12T00:44:56.746Z,14.31
2022-09-12T00:48:03.642Z,14.32
2022-09-12T00:51:06.450Z,14.20
2022-09-12T00:54:14.831Z,14.23
2022-09-12T00:57:18.347Z,14.22
2022-09-12T01:00:24.148Z,14.19
2022-09-12T01:03:27.068Z,14.24
2022-09-12T01:06:37.141Z,14.20
2022-09-12T01:09:41.750Z,14.09
2022-09-12T01:12:44.777Z,14.21
2022-09-12T01:15:47.340Z,14.14
2022-09-12T01:19:15.019Z,14.11
2022-09-12T01:22:55.223Z,14.06
2022-09-12T01:26:19.419Z,14.09
2022-09-12T01:29:40.338Z,14.16
2022-09-12T01:33:16.943Z,14.18
2022-09-12T01:36:34.512Z,14.10
2022-09-12T01:40:16.620Z,13.99
2022-09-12T01:43:26.756Z,14.00
2022-09-12T01:46:53.744Z,13.96
2022-09-12T01:50:08.336Z,13.98
2022-09-12T01:53:22.174Z,13.99
2022-09-12T01:56:28.300Z,14.10
2022-09-12T01:59:41.047Z,13.90
2022-09-12T02:02:51.968Z,14.00
2022-09-12T02:06:19.939Z,14.03
2022-09-12T02:09:38.028Z,13.99
2022-09-12T02:12:49.027Z,13.99
2022-09-12T02:15:58.379Z,14.05
2022-09-12T02:19:09.702Z,14.04
2022-09-12T02:22:17.720Z,14.06
2022-09-12T02:25:22.196Z,14.10
2022-09-12T02:28:30.075Z,14.11
2022-09-12T02:31:52.867Z,14.09
2022-09-12T02:35:09.307Z,14.13
2022-09-12T02:38:26.721Z,14.07
2022-09-12T02:41:29.232Z,13.97
2022-09-12T02:44:33.746Z,13.83
2022-09-12T02:47:49.044Z,13.83
2022-09-12T02:50:52.047Z,13.79
2022-09-12T02:53:54.694Z,13.87
2022-09-12T02:56:57.503Z,13.88
2022-09-12T03:00:01.663Z,13.79
2022-09-12T03:03:07.149Z,13.71
2022-09-12T03:06:18.430Z,13.63
2022-09-12T03:09:36.759Z,13.77
2022-09-12T03:13:00.985Z,13.83
2022-09-12T03:16:31.272Z,13.70
2022-09-12T03:19:45.712Z,13.65
2022-09-12T03:22:59.595Z,13.60
2022-09-12T03:26:21.267Z,13.69
2022-09-12T03:29:26.197Z,13.69
2022-09-12T03:32:44.849Z,13.63
2022-09-12T03:35:49.177Z,13.72
2022-09-12T03:38:52.204Z,13.63
2022-09-12T03:41:56.057Z,13.68
2022-09-12T03:44:58.617Z,13.78
2022-09-12T03:48:01.541Z,13.91
2022-09-12T03:51:06.084Z,14.00
2022-09-12T03:54:09.864Z,14.04
2022-09-12T03:57:12.615Z,14.07
2022-09-12T04:00:19.734Z,14.00
2022-09-12T04:03:22.858Z,13.94
2022-09-12T04:06:25.471Z,13.81
2022-09-12T04:09:28.198Z,13.83
2022-09-12T04:12:30.819Z,13.80
2022-09-12T04:15:33.693Z,13.76
2022-09-12T04:18:36.417Z,13.75
2022-09-12T04:21:40.053Z,13.75
2022-09-12T04:24:42.553Z,13.67
2022-09-12T04:27:45.310Z,13.74
2022-09-12T04:30:47.991Z,13.67
2022-09-12T04:33:56.303Z,13.67
2022-09-12T04:36:58.911Z,13.67
2022-09-12T04:40:01.887Z,13.75
2022-09-12T04:43:09.216Z,13.73
2022-09-12T04:46:16.986Z,13.63
2022-09-12T04:49:19.565Z,13.60
2022-09-12T04:52:22.448Z,13.59
2022-09-12T04:55:25.389Z,13.58
2022-09-12T04:58:28.120Z,13.66
2022-09-12T05:01:30.833Z,13.69
2022-09-12T05:04:33.716Z,13.84
2022-09-12T05:07:36.696Z,13.81
2022-09-12T05:10:39.459Z,13.99
2022-09-12T05:13:42.567Z,14.09
2022-09-12T05:16:49.192Z,14.08
2022-09-12T05:19:52.670Z,14.20
2022-09-12T05:22:55.844Z,14.35
2022-09-12T05:25:59.563Z,14.65
2022-09-12T05:29:04.340Z,14.84
2022-09-12T05:32:06.891Z,15.26
2022-09-12T05:35:09.649Z,15.38
2022-09-12T05:38:12.125Z,15.47
2022-09-12T05:41:25.123Z,15.59
2022-09-12T05:44:28.251Z,15.61
2022-09-12T05:47:31.400Z,15.68
2022-09-12T05:50:33.922Z,15.80
2022-09-12T05:53:37.977Z,15.89
2022-09-12T05:56:42.632Z,15.79
2022-09-12T05:59:45.409Z,15.52
2022-09-12T06:02:53.801Z,15.51
2022-09-12T06:05:56.611Z,15.73
2022-09-12T06:09:01.265Z,15.80
2022-09-12T06:12:04.237Z,15.90
2022-09-12T06:15:08.037Z,15.96
2022-09-12T06:18:11.010Z,16.13
2022-09-12T06:21:13.990Z,16.08
2022-09-12T06:24:18.224Z,16.19
2022-09-12T06:27:20.747Z,16.30
2022-09-12T06:30:25.489Z,16.38
2022-09-12T06:33:28.152Z,16.51
2022-09-12T06:36:34.092Z,16.64
2022-09-12T06:39:38.420Z,16.61
2022-09-12T06:42:41.223Z,16.79
2022-09-12T06:45:51.240Z,16.92
2022-09-12T06:48:56.623Z,16.84
2022-09-12T06:51:59.156Z,16.99
2022-09-12T06:55:01.939Z,17.21
2022-09-12T06:58:05.553Z,17.15
2022-09-12T07:01:14.215Z,17.40
2022-09-12T07:04:16.763Z,17.23
2022-09-12T07:07:19.565Z,17.29
2022-09-12T07:10:22.696Z,17.39
2022-09-12T07:13:25.610Z,17.49
2022-09-12T07:16:28.847Z,17.72
2022-09-12T07:19:31.645Z,17.99
2022-09-12T07:22:34.113Z,18.07
2022-09-12T07:25:37.712Z,18.25
2022-09-12T07:28:41.055Z,18.27
2022-09-12T07:31:44.546Z,18.65
2022-09-12T07:34:47.469Z,18.75
2022-09-12T07:37:50.319Z,18.59
2022-09-12T07:40:52.827Z,18.18
2022-09-12T07:43:57.786Z,17.99
2022-09-12T07:47:01.142Z,17.94
2022-09-12T07:50:04.169Z,17.90
2022-09-12T07:53:07.035Z,17.97
2022-09-12T07:56:11.295Z,18.04
2022-09-12T07:59:25.493Z,18.36
2022-09-12T08:02:41.498Z,18.57
2022-09-12T08:05:44.377Z,18.62
2022-09-12T08:08:48.446Z,18.75
2022-09-12T08:11:51.232Z,19.00
2022-09-12T08:14:53.790Z,19.55
2022-09-12T08:17:56.678Z,19.82
2022-09-12T08:21:00.839Z,19.43
2022-09-12T08:24:05.955Z,19.16
2022-09-12T08:27:08.548Z,18.96
2022-09-12T08:30:14.992Z,18.90
2022-09-12T08:33:17.997Z,18.77
2022-09-12T08:36:24.018Z,18.77
2022-09-12T08:39:26.467Z,18.74
2022-09-12T08:42:42.870Z,18.88
2022-09-12T08:45:58.336Z,19.11
2022-09-12T08:49:04.282Z,19.54
2022-09-12T08:52:15.604Z,19.46
2022-09-12T08:55:33.845Z,19.59
2022-09-12T08:58:40.870Z,19.56
2022-09-12T09:01:45.538Z,19.59
2022-09-12T09:04:56.443Z,19.77
2022-09-12T09:08:08.801Z,20.01
2022-09-12T09:11:21.326Z,19.74
2022-09-12T09:14:51.880Z,19.93
2022-09-12T09:18:11.106Z,19.88
2022-09-12T09:21:33.566Z,20.31
2022-09-12T09:24:48.946Z,20.51
2022-09-12T09:28:22.733Z,20.64
2022-09-12T09:31:28.914Z,20.86
2022-09-12T09:34:32.068Z,20.96
2022-09-12T09:37:58.882Z,20.87
2022-09-12T09:41:14.078Z,20.86
2022-09-12T09:44:17.584Z,20.63
2022-09-12T09:47:20.412Z,20.83
2022-09-12T09:50:24.052Z,21.14
2022-09-12T09:54:14.721Z,21.06
2022-09-12T09:57:35.510Z,20.99
2022-09-12T10:00:39.173Z,20.90
2022-09-12T10:03:56.047Z,20.88
2022-09-12T10:07:01.271Z,20.81
2022-09-12T10:10:23.244Z,21.09
2022-09-12T10:13:37.605Z,21.44
2022-09-12T10:16:53.285Z,21.56
2022-09-12T10:20:17.549Z,21.29
2022-09-12T10:23:37.062Z,20.98
2022-09-12T10:26:41.567Z,20.70
2022-09-12T10:29:54.642Z,20.59
2022-09-12T10:33:06.521Z,20.66
2022-09-12T10:36:09.468Z,21.00
2022-09-12T10:39:18.670Z,21.14
2022-09-12T10:42:46.759Z,21.35
2022-09-12T10:45:49.164Z,21.30
2022-09-12T10:49:14.681Z,21.48
2022-09-12T10:52:27.372Z,21.67
2022-09-12T10:55:35.496Z,21.53
2022-09-12T10:58:48.825Z,21.80
2022-09-12T11:01:58.495Z,21.47
2022-09-12T11:05:36.827Z,21.45
2022-09-12T11:09:10.047Z,21.66
2022-09-12T11:12:24.294Z,21.86
2022-09-12T11:15:55.516Z,21.63
2022-09-12T11:19:19.967Z,21.41
2022-09-12T11:22:31.719Z,21.18
2022-09-12T11:25:46.226Z,21.20
2022-09-12T11:28:55.843Z,21.41
2022-09-12T11:32:23.543Z,21.75
2022-09-12T11:35:29.732Z,21.66
2022-09-12T11:38:51.161Z,22.17
2022-09-12T11:42:00.501Z,22.37
2022-09-12T11:45:13.873Z,22.04
2022-09-12T11:48:46.269Z,21.55
2022-09-12T11:52:18.535Z,21.13
2022-09-12T11:55:29.840Z,20.88
2022-09-12T11:58:32.702Z,20.62
2022-09-12T12:01:44.996Z,20.46
2022-09-12T12:05:20.938Z,20.43
2022-09-12T12:08:27.605Z,20.43
2022-09-12T12:11:34.457Z,20.65
2022-09-12T12:14:46.836Z,21.02
2022-09-12T12:18:04.015Z,21.58
2022-09-12T12:21:32.123Z,21.97
2022-09-12T12:24:35.240Z,22.16
2022-09-12T12:28:06.333Z,22.25
2022-09-12T12:31:11.364Z,21.68
2022-09-12T12:34:35.207Z,21.83
2022-09-12T12:37:43.939Z,22.31
2022-09-12T12:40:46.973Z,22.47
2022-09-12T12:43:56.235Z,22.26
2022-09-12T12:47:20.218Z,22.15
2022-09-12T12:50:29.315Z,22.15
2022-09-12T12:53:31.852Z,22.48
2022-09-12T12:56:41.989Z,22.69
2022-09-12T13:00:08.897Z,22.50
2022-09-12T13:03:41.119Z,22.28
2022-09-12T13:06:46.516Z,22.21
2022-09-12T13:09:52.959Z,22.32
2022-09-12T13:13:03.432Z,22.61
2022-09-12T13:16:06.474Z,23.08
2022-09-12T13:19:19.245Z,22.75
2022-09-12T13:22:24.646Z,22.49
2022-09-12T13:25:32.877Z,22.62
2022-09-12T13:28:36.035Z,22.42
2022-09-12T13:31:39.376Z,22.37
2022-09-12T13:35:23.529Z,22.51
2022-09-12T13:39:03.169Z,22.18
2022-09-12T13:42:33.339Z,21.99
2022-09-12T13:45:39.527Z,21.38
2022-09-12T13:48:43.620Z,21.01
2022-09-12T13:51:46.200Z,21.22
2022-09-12T13:54:53.848Z,21.70
2022-09-12T13:58:05.113Z,22.13
2022-09-12T14:01:10.865Z,22.38
2022-09-12T14:04:36.692Z,22.48
2022-09-12T14:07:51.163Z,22.48
2022-09-12T14:10:54.775Z,22.44
2022-09-12T14:13:58.296Z,22.56
2022-09-12T14:17:01.138Z,22.60
2022-09-12T14:20:14.704Z,22.54
2022-09-12T14:23:29.652Z,22.60
2022-09-12T14:26:39.015Z,22.78
2022-09-12T14:29:44.080Z,22.88
2022-09-12T14:33:06.216Z,23.10
2022-09-12T14:36:15.734Z,23.08
2022-09-12T14:39:21.881Z,22.89
2022-09-12T14:42:30.353Z,23.15
2022-09-12T14:45:33.319Z,23.34
2022-09-12T14:48:43.260Z,23.48
2022-09-12T14:51:51.742Z,23.56
2022-09-12T14:55:21.617Z,23.74
2022-09-12T14:58:27.380Z,23.59
2022-09-12T15:01:30.191Z,23.56
2022-09-12T15:04:42.205Z,23.73
2022-09-12T15:07:53.925Z,23.99
2022-09-12T15:10:57.441Z,24.49
2022-09-12T15:14:12.881Z,24.73
2022-09-12T15:17:15.365Z,25.47
2022-09-12T15:20:18.186Z,25.55
2022-09-12T15:23:31.119Z,26.16
2022-09-12T15:26:33.910Z,26.50
2022-09-12T15:29:36.423Z,27.21
2022-09-12T15:32:41.985Z,28.21
2022-09-12T15:35:44.968Z,29.53
2022-09-12T15:38:48.860Z,29.93
2022-09-12T15:41:51.672Z,30.46
2022-09-12T15:44:54.787Z,31.63
2022-09-12T15:47:59.899Z,31.75
2022-09-12T15:51:04.801Z,32.03
2022-09-12T15:54:07.284Z,32.55
2022-09-12T15:57:10.228Z,32.98
2022-09-12T16:00:14.398Z,32.49
2022-09-12T16:03:27.580Z,32.18
2022-09-12T16:06:36.264Z,32.88
2022-09-12T16:09:40.172Z,31.70
2022-09-12T16:12:44.624Z,31.73
2022-09-12T16:15:47.385Z,32.27
2022-09-12T16:18:49.962Z,31.71
2022-09-12T16:21:52.867Z,30.58
2022-09-12T16:24:55.360Z,30.15
2022-09-12T16:27:58.353Z,28.84
2022-09-12T16:31:05.795Z,26.94
2022-09-12T16:34:08.684Z,25.14
2022-09-12T16:37:11.262Z,23.92
2022-09-12T16:40:15.845Z,22.89
2022-09-12T16:43:18.435Z,22.08
2022-09-12T16:46:24.168Z,21.46
2022-09-12T16:49:26.770Z,20.99
2022-09-12T16:52:30.262Z,20.82
2022-09-12T16:55:32.681Z,20.37
2022-09-12T16:58:41.577Z,20.08
2022-09-12T17:01:45.292Z,20.00
2022-09-12T17:04:48.855Z,19.76
2022-09-12T17:07:51.967Z,19.56
2022-09-12T17:11:05.943Z,19.31
2022-09-12T17:14:09.034Z,19.24
2022-09-12T17:17:12.054Z,19.09
2022-09-12T17:20:14.698Z,19.00
2022-09-12T17:23:17.908Z,18.96
2022-09-12T17:26:20.856Z,18.87
2022-09-12T17:29:23.643Z,18.64
2022-09-12T17:32:26.033Z,18.64
2022-09-12T17:35:29.110Z,18.53
2022-09-12T17:38:34.153Z,18.43
2022-09-12T17:41:37.694Z,18.25
2022-09-12T17:44:40.498Z,18.17
2022-09-12T17:47:43.335Z,18.05
2022-09-12T17:50:46.578Z,17.98
2022-09-12T17:53:49.368Z,17.91
2022-09-12T17:56:52.287Z,17.89
2022-09-12T17:59:54.968Z,18.01
2022-09-12T18:02:58.017Z,17.78
2022-09-12T18:06:01.052Z,17.81
2022-09-12T18:09:06.394Z,17.66
2022-09-12T18:12:10.100Z,17.66
2022-09-12T18:15:13.181Z,17.69
2022-09-12T18:18:16.126Z,17.61
2022-09-12T18:21:19.822Z,17.62
2022-09-12T18:24:23.133Z,17.54
2022-09-12T18:27:25.675Z,17.57
2022-09-12T18:30:30.096Z,17.46
2022-09-12T18:33:34.015Z,17.41
2022-09-12T18:36:37.088Z,17.32
2022-09-12T18:39:39.675Z,17.27
2022-09-12T18:42:42.438Z,17.21
2022-09-12T18:45:45.035Z,17.11
2022-09-12T18:48:47.879Z,17.05
2022-09-12T18:51:50.479Z,16.92
2022-09-12T18:54:53.335Z,16.88
2022-09-12T18:57:55.856Z,16.79
2022-09-12T19:00:59.214Z,16.74
2022-09-12T19:04:04.740Z,16.67
2022-09-12T19:07:07.814Z,16.57
2022-09-12T19:10:10.321Z,16.52
2022-09-12T19:13:13.114Z,16.47
2022-09-12T19:16:34.675Z,16.37
2022-09-12T19:19:40.469Z,16.29
2022-09-12T19:22:43.852Z,16.29
2022-09-12T19:25:56.887Z,16.41
2022-09-12T19:29:02.488Z,16.26
2022-09-12T19:32:05.474Z,16.17
2022-09-12T19:35:08.509Z,16.13
2022-09-12T19:38:12.223Z,16.02
2022-09-12T19:41:15.334Z,15.88
2022-09-12T19:44:19.354Z,15.95
2022-09-12T19:47:22.069Z,15.93
2022-09-12T19:50:28.225Z,16.03
2022-09-12T19:53:31.434Z,16.18
2022-09-12T19:56:34.261Z,16.19
2022-09-12T19:59:40.290Z,16.08
2022-09-12T20:02:43.221Z,16.29
2022-09-12T20:05:46.023Z,16.08
2022-09-12T20:08:49.176Z,15.94
2022-09-12T20:11:52.004Z,15.82
2022-09-12T20:14:54.566Z,15.72
2022-09-12T20:17:57.966Z,15.62
2022-09-12T20:21:11.670Z,15.68
2022-09-12T20:24:16.027Z,15.69
2022-09-12T20:27:18.635Z,15.50
2022-09-12T20:30:21.437Z,15.42
2022-09-12T20:33:23.891Z,15.28
2022-09-12T20:36:26.962Z,15.14
2022-09-12T20:39:29.462Z,15.16
2022-09-12T20:42:32.197Z,15.08
2022-09-12T20:45:41.432Z,14.97
2022-09-12T20:48:44.190Z,14.87
2022-09-12T20:51:48.341Z,14.84
2022-09-12T20:54:51.188Z,14.82
2022-09-12T20:57:53.659Z,14.81
2022-09-12T21:00:56.501Z,15.04
2022-09-12T21:04:00.749Z,15.05
2022-09-12T21:07:03.595Z,14.95
2022-09-12T21:10:06.364Z,14.97
2022-09-12T21:13:10.933Z,14.86
2022-09-12T21:16:16.755Z,14.78
2022-09-12T21:19:19.632Z,14.70
2022-09-12T21:22:22.197Z,14.65
2022-09-12T21:25:25.179Z,14.60
2022-09-12T21:28:28.509Z,14.51
2022-09-12T21:31:31.303Z,14.42
2022-09-12T21:34:33.928Z,14.44
2022-09-12T21:37:37.158Z,14.38
2022-09-12T21:40:39.662Z,14.46
2022-09-12T21:43:43.579Z,14.53
2022-09-12T21:46:46.187Z,14.65
2022-09-12T21:49:48.981Z,14.67
2022-09-12T21:52:51.706Z,14.50
2022-09-12T21:55:55.038Z,14.43
2022-09-12T21:58:57.566Z,14.33
2022-09-12T22:02:00.423Z,14.23
2022-09-12T22:05:04.169Z,14.14
2022-09-12T22:08:08.149Z,14.09
2022-09-12T22:11:10.898Z,14.10
2022-09-12T22:14:13.392Z,14.11
2022-09-12T22:17:16.283Z,14.03
2022-09-12T22:20:19.266Z,13.97
2022-09-12T22:23:40.565Z,13.95
2022-09-12T22:26:45.161Z,13.88
2022-09-12T22:29:50.571Z,13.75
2022-09-12T22:32:53.156Z,13.68
2022-09-12T22:35:55.915Z,13.67
2022-09-12T22:39:00.291Z,13.57
2022-09-12T22:42:03.834Z,13.53
2022-09-12T22:45:07.621Z,13.53
2022-09-12T22:48:10.426Z,13.75
2022-09-12T22:51:13.698Z,13.73
2022-09-12T22:54:16.463Z,13.56
2022-09-12T22:57:19.301Z,13.38
2022-09-12T23:00:23.587Z,13.23
2022-09-12T23:03:26.188Z,13.17
2022-09-12T23:06:29.513Z,13.19
2022-09-12T23:09:35.247Z,13.13
2022-09-12T23:12:38.309Z,13.11
2022-09-12T23:15:41.315Z,12.99
2022-09-12T23:18:44.379Z,12.85
2022-09-12T23:21:46.814Z,12.84
2022-09-12T23:24:49.548Z,12.71
2022-09-12T23:27:52.161Z,12.58
2022-09-12T23:30:55.975Z,12.53
2022-09-12T23:34:02.019Z,12.50
2022-09-12T23:37:04.747Z,12.44
2022-09-12T23:40:09.149Z,12.41
2022-09-12T23:43:11.942Z,12.36
2022-09-12T23:46:15.959Z,12.32
2022-09-12T23:49:18.785Z,12.32
2022-09-12T23:52:21.296Z,12.29
2022-09-12T23:55:24.555Z,12.28
2022-09-12T23:58:27.171Z,12.23
